createdAt,value
2023-04-08T00:00:11.175Z,9.50
2023-04-08T00:02:43.132Z,11.37
2023-04-08T00:05:12.437Z,14.67
2023-04-08T00:07:42.872Z,12.77
2023-04-08T00:10:12.126Z,14.57
2023-04-08T00:12:41.393Z,19.67
2023-04-08T00:15:10.974Z,9.93
2023-04-08T00:17:40.274Z,12.83
2023-04-08T00:20:10.392Z,10.60
2023-04-08T00:22:39.575Z,15.57
2023-04-08T00:25:10.886Z,10.93
2023-04-08T00:27:39.999Z,11.57
2023-04-08T00:30:10.415Z,11.47
2023-04-08T00:32:40.157Z,11.97
2023-04-08T00:35:09.979Z,11.87
2023-04-08T00:37:39.431Z,14.60
2023-04-08T00:40:10.968Z,11.33
2023-04-08T00:42:40.351Z,11.10
2023-04-08T00:45:10.669Z,13.10
2023-04-08T00:47:40.408Z,13.53
2023-04-08T00:50:11.331Z,18.67
2023-04-08T00:52:40.481Z,13.63
2023-04-08T00:55:12.132Z,16.70
2023-04-08T00:57:41.490Z,16.30
2023-04-08T01:00:11.894Z,16.27
2023-04-08T01:02:47.148Z,19.20
2023-04-08T01:05:22.170Z,17.60
2023-04-08T01:07:51.962Z,14.60
2023-04-08T01:10:26.432Z,12.33
2023-04-08T01:12:58.926Z,14.07
2023-04-08T01:15:30.003Z,13.20
2023-04-08T01:18:01.728Z,18.33
2023-04-08T01:20:31.975Z,15.07
2023-04-08T01:23:12.002Z,19.83
2023-04-08T01:25:50.770Z,14.10
2023-04-08T01:28:22.132Z,10.93
2023-04-08T01:30:52.394Z,11.87
2023-04-08T01:33:22.464Z,14.40
2023-04-08T01:35:55.092Z,14.93
2023-04-08T01:38:26.841Z,11.00
2023-04-08T01:40:58.168Z,13.40
2023-04-08T01:43:29.279Z,14.33
2023-04-08T01:45:59.466Z,17.43
2023-04-08T01:48:29.511Z,12.63
2023-04-08T01:51:00.026Z,11.73
2023-04-08T01:53:29.172Z,13.87
2023-04-08T01:56:04.490Z,15.73
2023-04-08T01:58:39.159Z,9.77
2023-04-08T02:01:12.468Z,13.97
2023-04-08T02:03:45.521Z,10.93
2023-04-08T02:06:16.132Z,13.03
2023-04-08T02:08:45.955Z,12.53
2023-04-08T02:11:16.829Z,14.93
2023-04-08T02:13:46.193Z,15.30
2023-04-08T02:16:23.544Z,12.77
2023-04-08T02:18:59.731Z,11.93
2023-04-08T02:21:34.836Z,12.23
2023-04-08T02:24:09.126Z,11.57
2023-04-08T02:26:40.962Z,11.57
2023-04-08T02:29:14.236Z,12.87
2023-04-08T02:31:44.509Z,11.47
2023-04-08T02:34:17.119Z,11.53
2023-04-08T02:36:47.893Z,14.67
2023-04-08T02:39:19.150Z,15.40
2023-04-08T02:41:52.338Z,14.97
2023-04-08T02:44:23.985Z,19.37
2023-04-08T02:46:53.047Z,15.57
2023-04-08T02:49:22.110Z,14.93
2023-04-08T02:51:51.216Z,15.33
2023-04-08T02:54:20.359Z,15.87
2023-04-08T02:56:51.434Z,14.63
2023-04-08T02:59:20.491Z,18.97
2023-04-08T03:01:49.609Z,13.77
2023-04-08T03:04:18.781Z,16.27
2023-04-08T03:06:47.993Z,21.60
2023-04-08T03:09:17.070Z,20.53
2023-04-08T03:11:52.486Z,14.20
2023-04-08T03:14:22.980Z,17.20
2023-04-08T03:16:52.112Z,15.73
2023-04-08T03:19:21.223Z,16.37
2023-04-08T03:21:50.756Z,15.90
2023-04-08T03:24:19.824Z,25.97
2023-04-08T03:26:48.934Z,21.30
2023-04-08T03:29:17.979Z,17.50
2023-04-08T03:31:48.603Z,18.47
2023-04-08T03:34:17.700Z,17.10
2023-04-08T03:36:46.737Z,21.77
2023-04-08T03:39:15.823Z,17.93
2023-04-08T03:41:44.967Z,21.33
2023-04-08T03:44:14.366Z,21.93
2023-04-08T03:46:43.409Z,26.13
2023-04-08T03:49:14.200Z,22.83
2023-04-08T03:51:43.309Z,23.77
2023-04-08T03:54:12.391Z,21.33
2023-04-08T03:56:41.481Z,26.53
2023-04-08T03:59:10.481Z,17.57
2023-04-08T04:01:41.730Z,14.87
2023-04-08T04:04:11.319Z,17.17
2023-04-08T04:06:41.885Z,19.27
2023-04-08T04:09:11.208Z,25.77
2023-04-08T04:11:40.340Z,23.70
2023-04-08T04:14:09.416Z,21.17
2023-04-08T04:16:38.560Z,17.67
2023-04-08T04:19:07.688Z,19.77
2023-04-08T04:21:36.778Z,19.83
2023-04-08T04:24:07.701Z,18.37
2023-04-08T04:26:36.772Z,28.03
2023-04-08T04:29:05.912Z,22.80
2023-04-08T04:31:34.989Z,18.73
2023-04-08T04:34:04.247Z,20.90
2023-04-08T04:36:33.280Z,25.03
2023-04-08T04:39:02.543Z,19.50
2023-04-08T04:41:32.959Z,27.33
2023-04-08T04:44:02.233Z,20.47
2023-04-08T04:46:31.388Z,23.93
2023-04-08T04:49:00.498Z,24.03
2023-04-08T04:51:32.054Z,24.00
2023-04-08T04:54:01.163Z,29.20
2023-04-08T04:56:30.317Z,23.67
2023-04-08T04:59:00.773Z,21.27
2023-04-08T05:01:30.012Z,22.33
2023-04-08T05:03:59.119Z,20.37
2023-04-08T05:06:28.539Z,25.20
2023-04-08T05:08:57.747Z,23.53
2023-04-08T05:11:26.871Z,20.43
2023-04-08T05:13:56.000Z,26.23
2023-04-08T05:16:26.997Z,22.90
2023-04-08T05:18:56.161Z,23.47
2023-04-08T05:21:25.785Z,24.30
2023-04-08T05:23:55.259Z,21.20
2023-04-08T05:26:24.449Z,24.07
2023-04-08T05:28:53.505Z,28.07
2023-04-08T05:31:22.790Z,23.30
2023-04-08T05:33:53.186Z,24.20
2023-04-08T05:36:22.275Z,20.87
2023-04-08T05:38:51.751Z,18.77
2023-04-08T05:41:21.314Z,22.27
2023-04-08T05:43:50.426Z,17.03
2023-04-08T05:46:19.562Z,16.93
2023-04-08T05:48:48.810Z,16.83
2023-04-08T05:51:19.437Z,24.90
2023-04-08T05:53:48.620Z,19.70
2023-04-08T05:56:17.711Z,20.43
2023-04-08T05:58:46.722Z,23.13
2023-04-08T06:01:15.836Z,25.27
2023-04-08T06:03:45.079Z,21.70
2023-04-08T06:06:15.360Z,19.90
2023-04-08T06:08:45.986Z,25.43
2023-04-08T06:11:23.987Z,23.23
2023-04-08T06:13:53.310Z,21.90
2023-04-08T06:16:22.427Z,18.17
2023-04-08T06:18:52.347Z,21.00
2023-04-08T06:21:21.743Z,17.33
2023-04-08T06:23:52.178Z,16.03
2023-04-08T06:26:21.586Z,17.73
2023-04-08T06:28:50.954Z,20.60
2023-04-08T06:31:20.903Z,20.57
2023-04-08T06:33:55.413Z,17.97
2023-04-08T06:36:24.612Z,15.43
2023-04-08T06:38:55.252Z,16.57
2023-04-08T06:41:28.254Z,17.80
2023-04-08T06:44:05.400Z,20.13
2023-04-08T06:46:42.082Z,14.70
2023-04-08T06:49:27.066Z,20.77
2023-04-08T06:51:56.242Z,14.60
2023-04-08T06:54:26.758Z,19.73
2023-04-08T06:56:55.826Z,17.10
2023-04-08T06:59:24.988Z,19.87
2023-04-08T07:01:54.170Z,21.07
2023-04-08T07:04:23.591Z,14.87
2023-04-08T07:06:52.730Z,20.17
2023-04-08T07:09:22.302Z,21.13
2023-04-08T07:11:52.872Z,17.67
2023-04-08T07:14:22.044Z,18.00
2023-04-08T07:16:51.255Z,13.93
2023-04-08T07:19:21.023Z,15.00
2023-04-08T07:21:50.233Z,19.67
2023-04-08T07:24:19.734Z,14.97
2023-04-08T07:26:49.493Z,15.80
2023-04-08T07:29:19.891Z,20.67
2023-04-08T07:31:48.990Z,14.07
2023-04-08T07:34:18.025Z,15.03
2023-04-08T07:36:47.229Z,16.87
2023-04-08T07:39:16.259Z,14.33
2023-04-08T07:41:45.438Z,14.20
2023-04-08T07:44:17.160Z,14.40
2023-04-08T07:46:51.403Z,22.03
2023-04-08T07:49:20.485Z,13.67
2023-04-08T07:51:49.588Z,15.67
2023-04-08T07:54:18.693Z,19.47
2023-04-08T07:56:47.760Z,19.00
2023-04-08T07:59:16.995Z,18.90
2023-04-08T08:01:47.553Z,17.20
2023-04-08T08:04:16.914Z,13.63
2023-04-08T08:06:46.240Z,19.60
2023-04-08T08:09:15.396Z,15.63
2023-04-08T08:11:44.463Z,15.87
2023-04-08T08:14:13.948Z,15.50
2023-04-08T08:16:44.510Z,18.43
2023-04-08T08:19:15.004Z,14.00
2023-04-08T08:21:44.135Z,15.60
2023-04-08T08:24:13.189Z,13.83
2023-04-08T08:26:42.284Z,15.30
2023-04-08T08:29:16.164Z,18.07
2023-04-08T08:31:48.588Z,13.20
2023-04-08T08:34:19.214Z,16.30
2023-04-08T08:36:48.358Z,14.97
2023-04-08T08:39:17.605Z,16.27
2023-04-08T08:41:46.730Z,12.83
2023-04-08T08:44:16.154Z,18.17
2023-04-08T08:46:46.673Z,13.43
2023-04-08T08:49:16.012Z,15.80
2023-04-08T08:51:47.950Z,13.03
2023-04-08T08:54:17.512Z,18.77
2023-04-08T08:56:46.819Z,11.90
2023-04-08T08:59:15.929Z,18.40
2023-04-08T09:01:45.166Z,14.00
2023-04-08T09:04:17.407Z,13.77
2023-04-08T09:06:50.142Z,16.37
2023-04-08T09:09:19.542Z,14.20
2023-04-08T09:11:49.316Z,14.90
2023-04-08T09:14:22.775Z,14.63
2023-04-08T09:16:52.365Z,16.73
2023-04-08T09:19:21.647Z,17.50
2023-04-08T09:22:08.100Z,16.07
2023-04-08T09:24:38.606Z,20.43
2023-04-08T09:27:07.677Z,16.83
2023-04-08T09:29:39.697Z,19.40
2023-04-08T09:32:09.157Z,15.23
2023-04-08T09:34:38.219Z,18.00
2023-04-08T09:37:08.663Z,16.03
2023-04-08T09:39:37.726Z,17.57
2023-04-08T09:42:11.770Z,15.50
2023-04-08T09:44:45.799Z,17.90
2023-04-08T09:47:22.196Z,13.63
2023-04-08T09:49:56.170Z,20.77
2023-04-08T09:52:35.276Z,16.63
2023-04-08T09:55:05.838Z,17.07
2023-04-08T09:57:42.497Z,17.00
2023-04-08T10:00:14.531Z,19.80
2023-04-08T10:03:02.078Z,16.93
2023-04-08T10:05:32.548Z,15.67
2023-04-08T10:08:02.929Z,14.83
2023-04-08T10:10:32.454Z,18.50
2023-04-08T10:13:02.066Z,14.93
2023-04-08T10:15:32.699Z,13.97
2023-04-08T10:18:33.138Z,21.47
2023-04-08T10:21:03.003Z,18.33
2023-04-08T10:24:00.966Z,14.47
2023-04-08T10:26:35.765Z,16.90
2023-04-08T10:29:33.778Z,15.60
2023-04-08T10:32:03.036Z,16.30
2023-04-08T10:34:32.225Z,15.27
2023-04-08T10:37:02.210Z,16.57
2023-04-08T10:39:33.091Z,15.90
2023-04-08T10:42:04.372Z,13.47
2023-04-08T10:44:33.422Z,14.03
2023-04-08T10:47:03.049Z,18.40
2023-04-08T10:49:36.946Z,14.00
2023-04-08T10:52:09.992Z,17.70
2023-04-08T10:54:48.224Z,17.57
2023-04-08T10:57:24.517Z,18.20
2023-04-08T10:59:54.859Z,18.30
2023-04-08T11:02:24.006Z,22.20
2023-04-08T11:04:55.995Z,13.70
2023-04-08T11:07:28.077Z,18.40
2023-04-08T11:10:00.614Z,17.97
2023-04-08T11:12:29.924Z,16.47
2023-04-08T11:14:59.523Z,17.37
2023-04-08T11:17:29.046Z,16.10
2023-04-08T11:20:02.125Z,18.93
2023-04-08T11:22:33.517Z,15.80
2023-04-08T11:25:04.069Z,16.90
2023-04-08T11:27:33.600Z,23.47
2023-04-08T11:30:03.102Z,20.80
2023-04-08T11:32:32.463Z,18.83
2023-04-08T11:35:02.429Z,17.90
2023-04-08T11:37:39.236Z,15.47
2023-04-08T11:40:14.440Z,17.10
2023-04-08T11:42:45.903Z,17.03
2023-04-08T11:45:18.088Z,18.60
2023-04-08T11:47:48.347Z,21.67
2023-04-08T11:50:25.277Z,17.63
2023-04-08T11:52:55.403Z,17.33
2023-04-08T11:55:27.031Z,12.53
2023-04-08T11:57:57.949Z,14.77
2023-04-08T12:00:28.021Z,27.73
2023-04-08T12:02:57.600Z,14.30
2023-04-08T12:05:26.703Z,14.40
2023-04-08T12:07:56.405Z,12.83
2023-04-08T12:10:26.858Z,13.67
2023-04-08T12:12:55.966Z,17.33
2023-04-08T12:15:25.095Z,14.73
2023-04-08T12:17:54.133Z,17.73
2023-04-08T12:20:23.168Z,24.60
2023-04-08T12:22:52.237Z,51.77
2023-04-08T12:25:21.432Z,22.17
2023-04-08T12:27:52.282Z,13.77
2023-04-08T12:30:21.808Z,12.77
2023-04-08T12:32:50.973Z,16.40
2023-04-08T12:35:20.012Z,25.53
2023-04-08T12:37:49.129Z,21.93
2023-04-08T12:40:19.134Z,14.03
2023-04-08T12:42:48.523Z,15.27
2023-04-08T12:45:18.918Z,21.27
2023-04-08T12:47:47.981Z,15.50
2023-04-08T12:50:30.825Z,17.13
2023-04-08T12:53:02.136Z,19.07
2023-04-08T12:55:37.146Z,18.67
2023-04-08T12:58:06.695Z,20.17
2023-04-08T13:00:38.621Z,25.33
2023-04-08T13:03:11.047Z,27.83
2023-04-08T13:05:43.744Z,15.07
2023-04-08T13:08:17.742Z,14.13
2023-04-08T13:10:47.234Z,25.13
2023-04-08T13:13:16.695Z,20.80
2023-04-08T13:15:47.686Z,23.07
2023-04-08T13:18:16.998Z,14.27
2023-04-08T13:20:51.737Z,17.23
2023-04-08T13:23:21.735Z,17.30
2023-04-08T13:25:56.947Z,15.80
2023-04-08T13:28:29.099Z,17.27
2023-04-08T13:31:01.103Z,18.20
2023-04-08T13:33:30.419Z,15.63
2023-04-08T13:36:01.508Z,16.73
2023-04-08T13:38:30.733Z,25.10
2023-04-08T13:40:59.814Z,19.23
2023-04-08T13:43:29.316Z,15.40
2023-04-08T13:46:00.795Z,16.27
2023-04-08T13:48:29.950Z,27.27
2023-04-08T13:50:59.012Z,18.53
2023-04-08T13:53:28.223Z,18.00
2023-04-08T13:55:59.063Z,19.30
2023-04-08T13:58:28.139Z,18.43
2023-04-08T14:00:57.220Z,15.53
2023-04-08T14:03:28.034Z,14.97
2023-04-08T14:06:01.124Z,17.60
2023-04-08T14:08:30.866Z,20.67
2023-04-08T14:11:00.202Z,18.43
2023-04-08T14:13:29.257Z,17.40
2023-04-08T14:15:58.781Z,17.13
2023-04-08T14:18:29.333Z,15.27
2023-04-08T14:20:58.342Z,17.83
2023-04-08T14:23:27.371Z,15.47
2023-04-08T14:25:56.409Z,17.67
2023-04-08T14:28:25.430Z,19.70
2023-04-08T14:30:54.558Z,15.00
2023-04-08T14:33:23.654Z,14.90
2023-04-08T14:35:56.094Z,14.60
2023-04-08T14:38:25.246Z,13.73
2023-04-08T14:40:54.741Z,15.10
2023-04-08T14:43:23.838Z,16.30
2023-04-08T14:45:53.064Z,19.70
2023-04-08T14:48:22.153Z,14.20
2023-04-08T14:50:51.268Z,17.43
2023-04-08T14:53:21.661Z,14.43
2023-04-08T14:55:51.045Z,19.37
2023-04-08T14:58:21.219Z,13.47
2023-04-08T15:00:50.288Z,21.37
2023-04-08T15:03:19.436Z,17.27
2023-04-08T15:05:58.537Z,24.00
2023-04-08T15:08:29.142Z,24.83
2023-04-08T15:10:58.208Z,16.17
2023-04-08T15:13:27.302Z,21.30
2023-04-08T15:15:56.532Z,22.10
2023-04-08T15:18:25.712Z,15.47
2023-04-08T15:20:54.774Z,22.27
2023-04-08T15:23:24.049Z,21.77
2023-04-08T15:25:54.452Z,19.07
2023-04-08T15:28:23.533Z,16.43
2023-04-08T15:30:52.857Z,21.33
2023-04-08T15:33:21.977Z,30.50
2023-04-08T15:35:51.149Z,15.63
2023-04-08T15:38:20.451Z,17.80
2023-04-08T15:40:49.451Z,17.20
2023-04-08T15:43:19.867Z,15.00
2023-04-08T15:45:48.946Z,15.67
2023-04-08T15:48:18.781Z,17.47
2023-04-08T15:50:47.923Z,13.33
2023-04-08T15:53:17.085Z,15.83
2023-04-08T15:55:46.138Z,14.90
2023-04-08T15:58:16.270Z,15.77
2023-04-08T16:00:46.689Z,18.63
2023-04-08T16:03:16.023Z,29.73
2023-04-08T16:05:45.192Z,18.03
2023-04-08T16:08:14.308Z,22.50
2023-04-08T16:10:43.762Z,20.80
2023-04-08T16:13:13.466Z,17.17
2023-04-08T16:15:42.717Z,22.43
2023-04-08T16:18:13.454Z,17.80
2023-04-08T16:20:42.684Z,21.03
2023-04-08T16:23:15.384Z,15.73
2023-04-08T16:25:44.543Z,18.73
2023-04-08T16:28:13.858Z,19.00
2023-04-08T16:30:43.851Z,16.80
2023-04-08T16:33:14.284Z,22.20
2023-04-08T16:35:43.449Z,16.00
2023-04-08T16:38:12.547Z,18.33
2023-04-08T16:40:41.661Z,18.07
2023-04-08T16:43:11.475Z,17.17
2023-04-08T16:45:41.594Z,17.90
2023-04-08T16:48:12.470Z,16.27
2023-04-08T16:50:51.503Z,15.20
2023-04-08T16:53:20.866Z,17.40
2023-04-08T16:55:49.913Z,21.27
2023-04-08T16:58:18.948Z,14.83
2023-04-08T17:00:48.012Z,15.40
2023-04-08T17:03:17.225Z,22.43
2023-04-08T17:05:46.637Z,15.37
2023-04-08T17:08:18.700Z,18.90
2023-04-08T17:10:49.555Z,15.83
2023-04-08T17:13:18.638Z,18.50
2023-04-08T17:15:48.246Z,41.67
2023-04-08T17:18:17.465Z,38.93
2023-04-08T17:20:46.667Z,23.80
2023-04-08T17:23:17.059Z,38.30
2023-04-08T17:25:46.472Z,34.47
2023-04-08T17:28:16.184Z,27.40
2023-04-08T17:30:45.619Z,34.70
2023-04-08T17:33:14.744Z,41.30
2023-04-08T17:35:44.067Z,62.60
2023-04-08T17:38:13.171Z,60.17
2023-04-08T17:40:43.649Z,46.47
2023-04-08T17:43:12.825Z,29.47
2023-04-08T17:45:42.019Z,31.17
2023-04-08T17:48:11.204Z,34.90
2023-04-08T17:50:40.403Z,45.23
2023-04-08T17:53:09.464Z,39.40
2023-04-08T17:55:38.532Z,46.77
2023-04-08T17:58:09.028Z,38.70
2023-04-08T18:00:38.119Z,42.63
2023-04-08T18:03:07.330Z,56.20
2023-04-08T18:05:36.448Z,44.10
2023-04-08T18:08:05.606Z,39.27
2023-04-08T18:10:34.802Z,40.40
2023-04-08T18:15:37.851Z,58.20
2023-04-08T18:18:06.953Z,50.93
2023-04-08T18:20:37.122Z,46.73
2023-04-08T18:23:06.244Z,42.83
2023-04-08T18:25:35.362Z,40.60
2023-04-08T18:28:04.406Z,49.87
2023-04-08T18:30:33.476Z,58.63
2023-04-08T18:33:04.065Z,62.10
2023-04-08T18:35:33.230Z,58.50
2023-04-08T18:38:02.294Z,78.40
2023-04-08T18:40:31.549Z,71.53
2023-04-08T18:43:03.448Z,72.57
2023-04-08T18:45:32.568Z,67.17
2023-04-08T18:48:03.020Z,77.17
2023-04-08T18:50:32.142Z,74.53
2023-04-08T18:53:01.143Z,77.83
2023-04-08T18:55:30.266Z,80.80
2023-04-08T18:57:59.428Z,68.50
2023-04-08T19:00:28.481Z,69.27
2023-04-08T19:02:58.119Z,74.27
2023-04-08T19:05:28.843Z,63.53
2023-04-08T19:07:57.959Z,68.77
2023-04-08T19:10:27.163Z,69.53
2023-04-08T19:12:56.239Z,58.80
2023-04-08T19:15:25.569Z,56.47
2023-04-08T19:17:54.687Z,67.97
2023-04-08T19:20:23.752Z,63.90
2023-04-08T19:22:55.891Z,64.37
2023-04-08T19:25:25.110Z,69.87
2023-04-08T19:27:54.318Z,66.67
2023-04-08T19:30:23.449Z,73.97
2023-04-08T19:32:53.710Z,68.67
2023-04-08T19:35:22.833Z,73.93
2023-04-08T19:37:53.294Z,75.40
2023-04-08T19:40:22.537Z,72.27
2023-04-08T19:42:51.677Z,76.13
2023-04-08T19:45:20.731Z,87.67
2023-04-08T19:47:49.777Z,84.07
2023-04-08T19:50:21.219Z,95.70
2023-04-08T19:52:50.465Z,86.43
2023-04-08T19:55:21.597Z,84.00
2023-04-08T19:57:51.803Z,90.00
2023-04-08T20:00:21.243Z,100.73
2023-04-08T20:02:50.920Z,94.60
2023-04-08T20:05:20.502Z,96.70
2023-04-08T20:07:49.607Z,96.67
2023-04-08T20:10:20.579Z,110.97
2023-04-08T20:12:49.636Z,118.73
2023-04-08T20:15:24.733Z,107.10
2023-04-08T20:17:54.763Z,101.27
2023-04-08T20:20:24.033Z,89.03
2023-04-08T20:22:53.086Z,77.53
2023-04-08T20:25:23.837Z,81.23
2023-04-08T20:27:53.079Z,85.97
2023-04-08T20:30:22.623Z,86.83
2023-04-08T20:32:51.695Z,80.13
2023-04-08T20:35:21.106Z,77.60
2023-04-08T20:37:50.257Z,71.20
2023-04-08T20:40:19.653Z,71.67
2023-04-08T20:42:50.138Z,67.33
2023-04-08T20:45:19.264Z,66.83
2023-04-08T20:47:48.489Z,69.00
2023-04-08T20:50:17.703Z,72.33
2023-04-08T20:52:47.017Z,73.70
2023-04-08T20:55:27.636Z,62.50
2023-04-08T20:58:13.488Z,69.53
2023-04-08T21:00:47.395Z,96.07
2023-04-08T21:03:17.112Z,106.57
2023-04-08T21:05:46.356Z,97.53
2023-04-08T21:08:15.409Z,94.57
2023-04-08T21:10:44.473Z,87.27
2023-04-08T21:13:14.905Z,94.27
2023-04-08T21:15:43.931Z,85.97
2023-04-08T21:18:13.010Z,77.47
2023-04-08T21:20:42.386Z,86.33
2023-04-08T21:23:12.916Z,82.33
2023-04-08T21:25:42.017Z,77.13
2023-04-08T21:28:11.198Z,76.97
2023-04-08T21:30:41.837Z,76.60
2023-04-08T21:33:11.222Z,71.23
2023-04-08T21:35:40.380Z,77.53
2023-04-08T21:38:09.541Z,75.97
2023-04-08T21:40:38.663Z,69.47
2023-04-08T21:43:07.708Z,70.10
2023-04-08T21:45:36.786Z,66.43
2023-04-08T21:48:08.183Z,67.23
2023-04-08T21:50:39.574Z,69.07
2023-04-08T21:53:08.735Z,68.93
2023-04-08T21:55:37.991Z,66.53
2023-04-08T21:58:07.162Z,78.67
2023-04-08T22:00:36.330Z,65.10
2023-04-08T22:03:07.714Z,73.17
2023-04-08T22:05:37.075Z,63.77
2023-04-08T22:08:06.781Z,69.67
2023-04-08T22:10:35.903Z,70.87
2023-04-08T22:13:05.002Z,71.73
2023-04-08T22:15:34.038Z,72.00
2023-04-08T22:18:04.776Z,88.87
2023-04-08T22:20:35.234Z,106.10
2023-04-08T22:23:04.350Z,109.93
2023-04-08T22:25:33.480Z,116.80
2023-04-08T22:28:02.523Z,159.93
2023-04-08T22:30:32.086Z,151.10
2023-04-08T22:33:01.323Z,140.07
2023-04-08T22:35:30.443Z,138.70
2023-04-08T22:38:00.873Z,113.73
2023-04-08T22:40:30.373Z,82.07
2023-04-08T22:42:59.430Z,75.87
2023-04-08T22:45:28.540Z,82.47
2023-04-08T22:47:57.678Z,77.30
2023-04-08T22:50:26.790Z,107.13
2023-04-08T22:52:55.882Z,113.67
2023-04-08T22:55:26.312Z,127.90
2023-04-08T22:57:55.668Z,140.23
2023-04-08T23:00:24.864Z,131.07
2023-04-08T23:02:54.161Z,98.13
2023-04-08T23:05:23.476Z,90.27
2023-04-08T23:07:52.538Z,107.57
2023-04-08T23:10:21.693Z,116.20
2023-04-08T23:12:52.405Z,102.83
2023-04-08T23:15:21.804Z,102.80
2023-04-08T23:17:50.852Z,103.83
2023-04-08T23:20:20.143Z,92.43
2023-04-08T23:22:49.228Z,77.60
2023-04-08T23:25:18.388Z,76.90
2023-04-08T23:27:47.500Z,98.97
2023-04-08T23:30:17.929Z,86.63
2023-04-08T23:32:47.055Z,84.83
2023-04-08T23:35:16.597Z,82.93
2023-04-08T23:37:46.315Z,71.57
2023-04-08T23:40:16.158Z,75.03
2023-04-08T23:42:45.524Z,84.00
2023-04-08T23:45:14.631Z,85.43
2023-04-08T23:47:45.070Z,70.77
2023-04-08T23:50:14.140Z,69.53
2023-04-08T23:52:43.152Z,81.23
2023-04-08T23:55:12.963Z,88.80
2023-04-08T23:57:44.016Z,87.03
